EGXZ

RAF Topcliffe Airport

Topcliffe, United Kingdom
METAR EGXZ 221350Z AUTO 25009KT 9999 OVC130/// 13/05 Q1015
Observed Flight Rules
Sep-22 @ 13:50 UTC (an hour ago) Visual Flight Rules
Wind Visibility Clouds
250° at 9 knots 10,000+ meters
Temperatures Readings
Current 13°C / 55°F
Dewpoint 5°C / 41°F
Humidity 59%
Altimeter 29.97" Hg
Pressure 1015 hPa
Elevation 28
METAR EGXZ 221350Z AUTO 25009KT 9999 OVC130/// 13/05 Q1015
Observed Flight Rules
Sep-22 @ 13:50 UTC
(an hour ago)
VFR
Wind Visibility
250° at 9 knots 10,000+ meters
Clouds
Temperature Dewpoint
13°C / 55°F 5°C / 41°F
Humidity Altimeter Pressure
59% 29.97" Hg 1015 hPa